Time;durP1;ratioP1;P1;durP2;ratioP2;P2;SDS_P1;SDS_P2;PMS_P1;PMS_P2;Temp;Humidity;BMP_temperature;BMP_pressure;BME280_temperature;BME280_humidity;BME280_pressure;Samples;Min_cycle;Max_cycle;Signal;HPM_P1;HPM_P2
2024/01/13 00:02:26;;;;;;;15.95;7.00;;;;;;;-141.50;100.00;63355.56;5048689;28;20049;-78
2024/01/13 00:04:53;;;;;;;15.07;6.43;;;;;;;-141.50;100.00;63355.56;5015549;28;20071;-80
2024/01/13 00:07:21;;;;;;;19.27;7.30;;;;;;;-141.50;100.00;63355.56;5036882;28;20079;-77
2024/01/13 00:09:48;;;;;;;15.48;6.78;;;;;;;-141.50;100.00;63355.56;5043343;28;20060;-79
2024/01/13 00:12:16;;;;;;;14.43;6.40;;;;;;;-141.50;100.00;63355.56;5045588;28;20044;-80
2024/01/13 00:14:44;;;;;;;18.20;7.38;;;;;;;-141.50;100.00;63355.56;5040472;28;20041;-80
2024/01/13 00:17:11;;;;;;;16.27;6.57;;;;;;;-141.50;100.00;63355.56;5045627;28;20439;-80
2024/01/13 00:19:38;;;;;;;14.27;6.30;;;;;;;-141.50;100.00;63355.56;5042180;28;20048;-78
2024/01/13 00:22:06;;;;;;;15.60;6.88;;;;;;;-141.50;100.00;63355.56;5015227;28;20056;-78
2024/01/13 00:24:32;;;;;;;15.68;6.55;;;;;;;-141.50;100.00;63355.56;5037196;28;20041;-78
2024/01/13 00:26:59;;;;;;;16.02;7.10;;;;;;;-141.50;100.00;63355.56;5007107;28;20091;-78
2024/01/13 00:29:27;;;;;;;16.90;7.43;;;;;;;-141.50;100.00;63355.56;5029522;28;20056;-80
2024/01/13 00:31:53;;;;;;;19.52;7.30;;;;;;;-141.50;100.00;63355.56;5025620;28;20053;-81
2024/01/13 00:34:25;;;;;;;24.00;7.03;;;;;;;-141.50;100.00;63355.56;5027638;28;20045;-80
2024/01/13 00:36:52;;;;;;;16.45;6.72;;;;;;;-141.50;100.00;63355.56;5003065;28;20057;-79
2024/01/13 00:39:19;;;;;;;18.15;7.45;;;;;;;-141.50;100.00;63355.56;5022399;28;20503;-79
2024/01/13 00:41:47;;;;;;;16.38;6.90;;;;;;;-141.50;100.00;63355.56;5033310;28;20038;-80
2024/01/13 00:44:14;;;;;;;18.40;6.78;;;;;;;-141.50;100.00;63355.56;5035214;28;22596;-81
2024/01/13 00:46:41;;;;;;;15.80;6.70;;;;;;;-141.50;100.00;63355.56;5032089;28;20037;-78
2024/01/13 00:49:09;;;;;;;15.07;6.53;;;;;;;-141.50;100.00;63355.56;5015401;28;20061;-79
2024/01/13 00:51:38;;;;;;;17.45;7.47;;;;;;;-141.50;100.00;63355.56;5030531;28;20084;-78
2024/01/13 00:54:06;;;;;;;17.30;7.20;;;;;;;-141.50;100.00;63355.56;5024811;28;20037;-79
2024/01/13 00:56:39;;;;;;;17.85;7.10;;;;;;;-141.50;100.00;63355.56;5022069;28;20048;-80
2024/01/13 00:59:10;;;;;;;17.35;7.22;;;;;;;-141.50;100.00;63355.56;5030989;28;20037;-78
2024/01/13 01:01:38;;;;;;;15.65;6.88;;;;;;;-141.50;100.00;63355.56;5024020;28;20047;-79
2024/01/13 01:04:05;;;;;;;16.65;6.78;;;;;;;-141.50;100.00;63355.56;5026982;28;20103;-78
2024/01/13 01:06:38;;;;;;;16.77;7.20;;;;;;;-141.50;100.00;63355.56;5030368;28;20068;-79
2024/01/13 01:09:07;;;;;;;13.52;6.40;;;;;;;-141.50;100.00;63355.56;5011183;28;20115;-79
2024/01/13 01:11:38;;;;;;;15.98;6.82;;;;;;;-141.50;100.00;63355.56;5044187;28;20041;-79
2024/01/13 01:14:06;;;;;;;21.33;6.70;;;;;;;-141.50;100.00;63355.56;5033619;28;20050;-81
2024/01/13 01:16:33;;;;;;;20.73;6.78;;;;;;;-141.50;100.00;63355.56;5035239;28;20049;-79
2024/01/13 01:19:01;;;;;;;16.23;7.13;;;;;;;-141.50;100.00;63355.56;5036994;28;20048;-79
2024/01/13 01:21:29;;;;;;;16.20;6.95;;;;;;;-141.50;100.00;63355.56;5013837;28;20064;-80
2024/01/13 01:23:55;;;;;;;13.70;6.90;;;;;;;-141.50;100.00;63355.56;5037451;28;20121;-79
2024/01/13 01:26:25;;;;;;;17.90;7.43;;;;;;;-141.50;100.00;63355.56;5017912;28;20099;-78
2024/01/13 01:28:53;;;;;;;18.67;7.22;;;;;;;-141.50;100.00;63355.56;5064667;28;20168;-80
2024/01/13 01:31:20;;;;;;;16.48;6.75;;;;;;;-141.50;100.00;63355.56;5045928;28;20045;-79
2024/01/13 01:33:47;;;;;;;17.65;6.95;;;;;;;-141.50;100.00;63355.56;5033749;28;20068;-80
2024/01/13 01:36:15;;;;;;;16.38;6.18;;;;;;;-141.50;100.00;63355.56;5027720;28;20102;-80
2024/01/13 01:38:43;;;;;;;13.75;6.32;;;;;;;-141.50;100.00;63355.56;5019868;28;20512;-79
2024/01/13 01:41:15;;;;;;;17.75;7.38;;;;;;;-141.50;100.00;63355.56;5026329;28;20416;-79
2024/01/13 01:43:44;;;;;;;15.77;6.03;;;;;;;-141.50;100.00;63355.56;5018825;28;20080;-79
2024/01/13 01:46:13;;;;;;;12.35;6.10;;;;;;;-141.50;100.00;63355.56;5037557;28;20443;-80
2024/01/13 01:48:43;;;;;;;17.75;6.80;;;;;;;-141.50;100.00;63355.56;5016869;28;20045;-79
2024/01/13 01:51:14;;;;;;;13.38;5.68;;;;;;;-141.50;100.00;63355.56;5034151;28;20593;-78
2024/01/13 01:53:44;;;;;;;18.77;6.25;;;;;;;-141.50;100.00;63355.56;5015086;28;20051;-79
2024/01/13 01:56:14;;;;;;;14.55;6.22;;;;;;;-141.50;100.00;63355.56;5006066;28;20050;-80
2024/01/13 01:58:42;;;;;;;15.35;5.45;;;;;;;-141.50;100.00;63355.56;5029779;28;20046;-79
2024/01/13 02:01:13;;;;;;;15.98;6.90;;;;;;;-141.50;100.00;63355.56;4995626;28;20099;-79
2024/01/13 02:03:41;;;;;;;14.73;6.00;;;;;;;-141.50;100.00;63355.56;5036866;28;20065;-78
2024/01/13 02:06:09;;;;;;;11.77;4.82;;;;;;;-141.50;100.00;63355.56;5044679;28;20045;-80
2024/01/13 02:08:37;;;;;;;15.90;5.75;;;;;;;-141.50;100.00;63355.56;5037518;28;20049;-79
2024/01/13 02:11:10;;;;;;;11.73;5.03;;;;;;;-141.50;100.00;63355.56;5019650;28;20225;-78
2024/01/13 02:13:43;;;;;;;13.13;5.38;;;;;;;-141.50;100.00;63355.56;5045282;28;20056;-79
2024/01/13 02:16:12;;;;;;;11.07;5.25;;;;;;;-141.50;100.00;63355.56;5020515;28;20049;-78
2024/01/13 02:18:39;;;;;;;12.02;5.13;;;;;;;-141.50;100.00;63355.56;5027143;28;20133;-79
2024/01/13 02:21:12;;;;;;;11.80;5.45;;;;;;;-141.50;100.00;63355.56;5029875;28;20041;-79
2024/01/13 02:23:43;;;;;;;11.20;4.80;;;;;;;-141.50;100.00;63355.56;5013180;28;20046;-80
2024/01/13 02:26:10;;;;;;;10.90;4.88;;;;;;;-141.50;100.00;63355.56;5033649;28;20111;-79
2024/01/13 02:28:38;;;;;;;10.27;4.80;;;;;;;-141.50;100.00;63355.56;5034935;28;20088;-78
2024/01/13 02:31:17;;;;;;;10.43;4.57;;;;;;;-141.50;100.00;63355.56;5001725;28;20325;-80
2024/01/13 02:33:49;;;;;;;12.43;4.97;;;;;;;-141.50;100.00;63355.56;5032215;28;20041;-79
2024/01/13 02:36:24;;;;;;;14.35;4.53;;;;;;;-141.50;100.00;63355.56;5023713;28;20802;-79
2024/01/13 02:38:52;;;;;;;12.25;5.18;;;;;;;-141.50;100.00;63355.56;5043000;28;20527;-79
2024/01/13 02:41:20;;;;;;;11.00;3.97;;;;;;;-141.50;100.00;63355.56;5061074;28;20060;-78
2024/01/13 02:43:47;;;;;;;10.25;4.40;;;;;;;-141.50;100.00;63355.56;5011928;28;20058;-80
2024/01/13 02:46:14;;;;;;;9.45;4.05;;;;;;;-141.50;100.00;63355.56;5024239;28;20057;-80
2024/01/13 02:48:56;;;;;;;11.18;4.65;;;;;;;-141.50;100.00;63355.56;5031294;28;20038;-80
2024/01/13 02:51:23;;;;;;;11.20;4.93;;;;;;;-141.50;100.00;63355.56;5015432;28;20045;-80
2024/01/13 02:53:51;;;;;;;11.27;5.43;;;;;;;-141.50;100.00;63355.56;5030534;28;20045;-81
2024/01/13 02:56:23;;;;;;;11.98;4.55;;;;;;;-141.50;100.00;63355.56;5033568;28;20041;-78
2024/01/13 02:58:50;;;;;;;12.23;4.30;;;;;;;-141.50;100.00;63355.56;5015593;28;20065;-78
2024/01/13 03:01:17;;;;;;;7.70;4.10;;;;;;;-141.50;100.00;63355.56;5034766;28;20064;-78
2024/01/13 03:03:50;;;;;;;9.75;4.60;;;;;;;-141.50;100.00;63355.56;5008258;28;20069;-78
2024/01/13 03:06:22;;;;;;;11.85;4.40;;;;;;;-141.50;100.00;63355.56;5025620;28;20134;-78
2024/01/13 03:08:53;;;;;;;11.20;4.70;;;;;;;-141.50;100.00;63355.56;5023198;28;20129;-81
2024/01/13 03:11:21;;;;;;;8.48;4.10;;;;;;;-141.50;100.00;63355.56;5025057;28;20121;-79
2024/01/13 03:13:54;;;;;;;11.70;4.00;;;;;;;-141.50;100.00;63355.56;5046260;28;20140;-79
2024/01/13 03:16:21;;;;;;;10.88;4.40;;;;;;;-141.50;100.00;63355.56;5041122;28;20053;-81
2024/01/13 03:18:54;;;;;;;13.35;4.53;;;;;;;-141.50;100.00;63355.56;5023800;28;20057;-79
2024/01/13 03:21:22;;;;;;;8.85;3.80;;;;;;;-141.50;100.00;63355.56;5045216;28;20044;-79
2024/01/13 03:23:49;;;;;;;9.43;4.40;;;;;;;-141.50;100.00;63355.56;5031046;28;20734;-81
2024/01/13 03:26:18;;;;;;;9.70;4.20;;;;;;;-141.50;100.00;63355.56;5044101;28;20037;-80
2024/01/13 03:28:47;;;;;;;8.02;3.70;;;;;;;-141.50;100.00;63355.56;5043898;28;20054;-81
2024/01/13 03:31:14;;;;;;;7.63;3.80;;;;;;;-141.50;100.00;63355.56;5045174;28;21355;-78
2024/01/13 03:33:47;;;;;;;7.55;3.63;;;;;;;-141.50;100.00;63355.56;5047367;28;20041;-78
2024/01/13 03:36:17;;;;;;;8.52;4.32;;;;;;;-141.50;100.00;63355.56;5041641;28;20109;-78
2024/01/13 03:38:45;;;;;;;7.80;3.83;;;;;;;-141.50;100.00;63355.56;5052889;28;20064;-80
2024/01/13 03:41:15;;;;;;;9.50;4.38;;;;;;;-141.50;100.00;63355.56;5017296;28;20052;-81
2024/01/13 03:43:44;;;;;;;11.82;3.30;;;;;;;-141.50;100.00;63355.56;5042827;28;20045;-80
2024/01/13 03:46:12;;;;;;;10.73;3.72;;;;;;;-141.50;100.00;63355.56;5041834;28;20512;-80
2024/01/13 03:48:44;;;;;;;7.95;3.60;;;;;;;-141.50;100.00;63355.56;5045381;28;20095;-81
2024/01/13 03:51:12;;;;;;;9.07;4.15;;;;;;;-141.50;100.00;63355.56;5042495;28;20064;-81
2024/01/13 03:53:39;;;;;;;12.25;3.92;;;;;;;-141.50;100.00;63355.56;5015261;28;20042;-80
2024/01/13 03:56:08;;;;;;;7.63;3.70;;;;;;;-141.50;100.00;63355.56;5023020;28;20663;-78
2024/01/13 03:58:37;;;;;;;7.55;3.60;;;;;;;-141.50;100.00;63355.56;5036127;28;20041;-79
2024/01/13 04:01:03;;;;;;;9.32;3.72;;;;;;;-141.50;100.00;63355.56;5037759;28;20099;-81
2024/01/13 04:03:32;;;;;;;9.40;3.90;;;;;;;-141.50;100.00;63355.56;5038873;28;20564;-80
2024/01/13 04:06:03;;;;;;;7.68;3.15;;;;;;;-141.50;100.00;63355.56;5030025;28;20561;-79
2024/01/13 04:08:33;;;;;;;9.20;3.78;;;;;;;-141.50;100.00;63355.56;5041230;28;20056;-80
2024/01/13 04:11:05;;;;;;;9.88;4.57;;;;;;;-141.50;100.00;63355.56;5019486;28;20470;-78
2024/01/13 04:13:32;;;;;;;8.77;4.40;;;;;;;-141.50;100.00;63355.56;5045143;28;20407;-79
2024/01/13 04:16:00;;;;;;;8.70;3.65;;;;;;;-141.50;100.00;63355.56;5016251;28;20053;-79
2024/01/13 04:18:30;;;;;;;8.48;3.65;;;;;;;-141.50;100.00;63355.56;5022416;28;20042;-78
2024/01/13 04:20:57;;;;;;;8.57;3.40;;;;;;;-141.50;100.00;63355.56;5038382;28;20435;-79
2024/01/13 04:23:45;;;;;;;10.95;3.70;;;;;;;-141.50;100.00;63355.56;5022350;28;20081;-78
2024/01/13 04:26:12;;;;;;;8.88;3.90;;;;;;;-141.50;100.00;63355.56;5027580;28;20049;-81
2024/01/13 04:28:39;;;;;;;11.25;3.70;;;;;;;-141.50;100.00;63355.56;5031391;28;20052;-78
2024/01/13 04:31:07;;;;;;;8.27;4.13;;;;;;;-141.50;100.00;63355.56;5042783;28;20045;-80
2024/01/13 04:33:34;;;;;;;8.35;3.70;;;;;;;-141.50;100.00;63355.56;5037693;28;20521;-81
2024/01/13 04:36:04;;;;;;;8.43;4.05;;;;;;;-141.50;100.00;63355.56;5030194;28;20044;-81
2024/01/13 04:38:32;;;;;;;9.70;4.03;;;;;;;-141.50;100.00;63355.56;5038580;28;20056;-79
2024/01/13 04:41:00;;;;;;;7.13;3.40;;;;;;;-141.50;100.00;63355.56;5046661;28;20041;-82
2024/01/13 04:43:28;;;;;;;8.77;3.83;;;;;;;-141.50;100.00;63355.56;5043603;28;20117;-80
2024/01/13 04:45:58;;;;;;;8.68;3.40;;;;;;;-141.50;100.00;63355.56;5033099;28;20037;-79
2024/01/13 04:48:25;;;;;;;8.05;3.55;;;;;;;-141.50;100.00;63355.56;5054791;28;20072;-80
2024/01/13 04:50:52;;;;;;;9.68;3.67;;;;;;;-141.50;100.00;63355.56;5043456;28;20050;-79
2024/01/13 04:53:19;;;;;;;8.07;3.70;;;;;;;-141.50;100.00;63355.56;5007879;28;20041;-79
2024/01/13 04:55:46;;;;;;;6.05;3.30;;;;;;;-141.50;100.00;63355.56;5048351;28;20060;-79
2024/01/13 04:58:14;;;;;;;7.95;3.60;;;;;;;-141.50;100.00;63355.56;5039114;28;20061;-81
2024/01/13 05:00:41;;;;;;;8.88;2.92;;;;;;;-141.50;100.00;63355.56;5031788;28;20038;-80
2024/01/13 05:03:08;;;;;;;9.57;3.22;;;;;;;-141.50;100.00;63355.56;5029020;28;20041;-80
2024/01/13 05:05:36;;;;;;;7.65;3.10;;;;;;;-141.50;100.00;63355.56;5025148;28;20156;-80
2024/01/13 05:08:05;;;;;;;5.75;2.90;;;;;;;-141.50;100.00;63355.56;5012239;28;20452;-81
2024/01/13 05:10:36;;;;;;;7.63;3.22;;;;;;;-141.50;100.00;63355.56;5028499;28;20041;-81
2024/01/13 05:13:03;;;;;;;8.00;3.30;;;;;;;-141.50;100.00;63355.56;5029068;28;20133;-80
2024/01/13 05:15:30;;;;;;;5.13;2.80;;;;;;;-141.50;100.00;63355.56;5027778;28;20048;-81
2024/01/13 05:17:58;;;;;;;9.43;3.40;;;;;;;-141.50;100.00;63355.56;5037212;28;20128;-79
2024/01/13 05:20:25;;;;;;;8.32;2.75;;;;;;;-141.50;100.00;63355.56;5033293;28;20429;-81
2024/01/13 05:22:56;;;;;;;7.15;3.10;;;;;;;-141.50;100.00;63355.56;5043616;28;20052;-79
2024/01/13 05:25:23;;;;;;;6.10;2.80;;;;;;;-141.50;100.00;63355.56;5039334;28;20049;-78
2024/01/13 05:27:50;;;;;;;6.50;2.92;;;;;;;-141.50;100.00;63355.56;5039287;28;20064;-79
2024/01/13 05:30:23;;;;;;;5.95;3.05;;;;;;;-141.50;100.00;63355.56;4999357;28;20037;-80
2024/01/13 05:32:51;;;;;;;6.25;3.03;;;;;;;-141.50;100.00;63355.56;5015465;28;20041;-79
2024/01/13 05:35:18;;;;;;;3.75;2.13;;;;;;;-141.50;100.00;63355.56;5024209;28;20124;-78
2024/01/13 05:37:48;;;;;;;6.15;3.08;;;;;;;-141.50;100.00;63355.56;5002931;28;20149;-79
2024/01/13 05:40:15;;;;;;;6.05;2.53;;;;;;;-141.50;100.00;63355.56;5005285;28;20047;-80
2024/01/13 05:42:42;;;;;;;6.43;2.65;;;;;;;-141.50;100.00;63355.56;5036622;28;20045;-78
2024/01/13 05:45:11;;;;;;;4.75;2.55;;;;;;;-141.50;100.00;63355.56;5038535;28;20313;-79
2024/01/13 05:47:39;;;;;;;6.03;2.28;;;;;;;-141.50;100.00;63355.56;5023393;28;20041;-79
2024/01/13 05:50:06;;;;;;;8.57;2.63;;;;;;;-141.50;100.00;63355.56;5057986;28;20048;-79
2024/01/13 05:52:38;;;;;;;7.10;2.95;;;;;;;-141.50;100.00;63355.56;5009010;28;20052;-79
2024/01/13 05:55:06;;;;;;;8.18;2.58;;;;;;;-141.50;100.00;63355.56;5031869;28;20099;-79
2024/01/13 05:57:33;;;;;;;6.28;3.03;;;;;;;-141.50;100.00;63355.56;5026586;28;20410;-80
2024/01/13 06:00:03;;;;;;;4.38;2.25;;;;;;;-141.50;100.00;63355.56;5038159;28;20044;-78
2024/01/13 06:02:33;;;;;;;7.28;2.90;;;;;;;-141.50;100.00;63355.56;5048590;28;20057;-79
2024/01/13 06:05:01;;;;;;;6.38;2.92;;;;;;;-141.50;100.00;63355.56;5034595;28;20048;-80
2024/01/13 06:07:28;;;;;;;8.55;3.05;;;;;;;-141.50;100.00;63355.56;5026026;28;20053;-80
2024/01/13 06:10:05;;;;;;;7.13;2.85;;;;;;;-141.50;100.00;63355.56;5018612;28;20451;-82
2024/01/13 06:12:32;;;;;;;4.55;2.70;;;;;;;-141.50;100.00;63355.56;5025830;28;20044;-82
2024/01/13 06:15:00;;;;;;;5.18;2.42;;;;;;;-141.50;100.00;63355.56;5026980;28;20540;-85
2024/01/13 06:17:28;;;;;;;5.53;2.42;;;;;;;-141.50;100.00;63355.56;5021891;28;20065;-82
2024/01/13 06:19:56;;;;;;;5.38;2.58;;;;;;;-141.50;100.00;63355.56;5019825;28;20637;-84
2024/01/13 06:22:23;;;;;;;5.35;2.38;;;;;;;-141.50;100.00;63355.56;5036410;28;20212;-80
2024/01/13 06:24:50;;;;;;;5.22;2.20;;;;;;;-141.50;100.00;63355.56;5028930;28;20054;-81
2024/01/13 06:27:17;;;;;;;6.97;2.88;;;;;;;-141.50;100.00;63355.56;5035016;28;20104;-80
2024/01/13 06:29:45;;;;;;;4.78;2.60;;;;;;;-141.50;100.00;63355.56;5012423;28;20045;-79
2024/01/13 06:32:12;;;;;;;5.22;2.60;;;;;;;-141.50;100.00;63355.56;5029169;28;20052;-79
2024/01/13 06:34:39;;;;;;;6.82;2.80;;;;;;;-141.50;100.00;63355.56;5030875;28;20523;-80
2024/01/13 06:37:07;;;;;;;9.15;2.85;;;;;;;-141.50;100.00;63355.56;5006820;28;20038;-80
2024/01/13 06:39:34;;;;;;;6.57;2.40;;;;;;;-141.50;100.00;63355.56;5022699;28;20049;-79
2024/01/13 06:42:06;;;;;;;4.00;2.25;;;;;;;-141.50;100.00;63355.56;5022527;28;20667;-77
2024/01/13 06:44:35;;;;;;;7.47;2.72;;;;;;;-141.50;100.00;63355.56;5055727;28;20044;-76
2024/01/13 06:47:13;;;;;;;7.43;2.80;;;;;;;-141.50;100.00;63355.56;5043996;28;20053;-76
2024/01/13 06:49:40;;;;;;;6.28;2.30;;;;;;;-141.50;100.00;63355.56;5052263;28;20049;-76
2024/01/13 06:52:09;;;;;;;4.88;2.60;;;;;;;-141.50;100.00;63355.56;5054087;28;20040;-78
2024/01/13 06:54:41;;;;;;;4.40;2.40;;;;;;;-141.50;100.00;63355.56;5043508;28;20041;-76
2024/01/13 06:57:09;;;;;;;6.97;2.95;;;;;;;-141.50;100.00;63355.56;5044118;28;20048;-78
2024/01/13 06:59:36;;;;;;;4.88;2.47;;;;;;;-141.50;100.00;63355.56;5057953;28;20060;-78
2024/01/13 07:02:04;;;;;;;3.95;2.20;;;;;;;-141.50;100.00;63355.56;5043868;28;20055;-76
2024/01/13 07:04:36;;;;;;;7.05;2.88;;;;;;;-141.50;100.00;63355.56;5042796;28;20049;-77
2024/01/13 07:07:05;;;;;;;6.05;2.58;;;;;;;-141.50;100.00;63355.56;5046651;28;20072;-76
2024/01/13 07:09:35;;;;;;;7.45;2.60;;;;;;;-141.50;100.00;63355.56;5050040;28;20037;-77
2024/01/13 07:12:02;;;;;;;5.28;2.90;;;;;;;-141.50;100.00;63355.56;5034132;28;20038;-78
2024/01/13 07:14:33;;;;;;;6.88;2.72;;;;;;;-141.50;100.00;63355.56;5046121;28;20049;-76
2024/01/13 07:16:59;;;;;;;6.63;2.60;;;;;;;-141.50;100.00;63355.56;5051023;28;20390;-78
2024/01/13 07:19:29;;;;;;;6.43;2.70;;;;;;;-141.50;100.00;63355.56;5044188;28;20056;-79
2024/01/13 07:21:58;;;;;;;5.75;2.53;;;;;;;-141.50;100.00;63355.56;5048270;28;20045;-78
2024/01/13 07:24:25;;;;;;;6.18;2.70;;;;;;;-141.50;100.00;63355.56;5045123;28;20041;-77
2024/01/13 07:26:53;;;;;;;4.85;2.50;;;;;;;-141.50;100.00;63355.56;5032114;28;20049;-78
2024/01/13 07:29:21;;;;;;;5.38;2.63;;;;;;;-141.50;100.00;63355.56;5033281;28;20041;-78
2024/01/13 07:31:52;;;;;;;6.80;3.10;;;;;;;-141.50;100.00;63355.56;5011327;28;20079;-79
2024/01/13 07:34:22;;;;;;;7.35;3.00;;;;;;;-141.50;100.00;63355.56;5044941;28;20061;-79
2024/01/13 07:36:52;;;;;;;7.72;2.85;;;;;;;-141.50;100.00;63355.56;5046142;28;20050;-79
2024/01/13 07:39:20;;;;;;;6.03;3.10;;;;;;;-141.50;100.00;63355.56;5043775;28;20112;-79
2024/01/13 07:41:52;;;;;;;5.10;2.65;;;;;;;-141.50;100.00;63355.56;5033197;28;20073;-77
2024/01/13 07:44:19;;;;;;;5.32;2.47;;;;;;;-141.50;100.00;63355.56;5039942;28;20113;-78
2024/01/13 07:46:47;;;;;;;6.05;3.00;;;;;;;-141.50;100.00;63355.56;5039331;28;20682;-78
2024/01/13 07:49:14;;;;;;;5.50;3.20;;;;;;;-141.50;100.00;63355.56;5021356;28;20128;-77
2024/01/13 07:51:41;;;;;;;6.18;3.03;;;;;;;-141.50;100.00;63355.56;5033584;28;20096;-78
2024/01/13 07:54:09;;;;;;;8.73;3.20;;;;;;;-141.50;100.00;63355.56;5026271;28;20053;-76
2024/01/13 07:56:37;;;;;;;9.00;4.10;;;;;;;-141.50;100.00;63355.56;5010126;28;20046;-78
2024/01/13 07:59:04;;;;;;;5.53;2.90;;;;;;;-141.50;100.00;63355.56;5034804;28;20494;-79
2024/01/13 08:01:31;;;;;;;8.45;3.72;;;;;;;-141.50;100.00;63355.56;5044666;28;20094;-78
2024/01/13 08:04:13;;;;;;;6.15;2.92;;;;;;;-141.50;100.00;63355.56;5022162;28;20052;-78
2024/01/13 08:06:41;;;;;;;7.15;3.20;;;;;;;-141.50;100.00;63355.56;5043291;28;20065;-77
2024/01/13 08:09:09;;;;;;;6.57;3.30;;;;;;;-141.50;100.00;63355.56;5047982;28;20114;-76
2024/01/13 08:11:37;;;;;;;7.15;3.78;;;;;;;-141.50;100.00;63355.56;5033549;28;20065;-76
2024/01/13 08:14:10;;;;;;;9.02;3.58;;;;;;;-141.50;100.00;63355.56;5029710;28;20044;-77
2024/01/13 08:16:42;;;;;;;6.78;3.50;;;;;;;-141.50;100.00;63355.56;5039175;28;20511;-78
2024/01/13 08:19:10;;;;;;;6.15;3.22;;;;;;;-141.50;100.00;63355.56;5046441;28;20919;-78
2024/01/13 08:21:37;;;;;;;8.90;3.70;;;;;;;-141.50;100.00;63355.56;5048869;28;20408;-78
2024/01/13 08:24:08;;;;;;;6.55;3.60;;;;;;;-141.50;100.00;63355.56;5047065;28;20064;-79
2024/01/13 08:26:37;;;;;;;8.43;3.72;;;;;;;-141.50;100.00;63355.56;5039970;28;20072;-79
2024/01/13 08:29:05;;;;;;;8.65;4.10;;;;;;;-141.50;100.00;63355.56;5023309;28;20045;-77
2024/01/13 08:31:32;;;;;;;8.20;3.75;;;;;;;-141.50;100.00;63355.56;5050326;28;20178;-78
2024/01/13 08:34:09;;;;;;;9.23;3.63;;;;;;;-141.50;100.00;63355.56;5045314;28;20045;-78
2024/01/13 08:36:43;;;;;;;8.27;3.90;;;;;;;-141.50;100.00;63355.56;5028659;28;20114;-77
2024/01/13 08:39:10;;;;;;;8.32;3.88;;;;;;;-141.50;100.00;63355.56;5009131;28;20042;-73
2024/01/13 08:41:38;;;;;;;6.63;3.60;;;;;;;-141.50;100.00;63355.56;5045612;28;20057;-72
2024/01/13 08:44:09;;;;;;;6.28;3.38;;;;;;;-141.50;100.00;63355.56;5003681;28;20041;-78
2024/01/13 08:46:35;;;;;;;8.35;3.88;;;;;;;-141.50;100.00;63355.56;5030408;28;20419;-76
2024/01/13 08:49:04;;;;;;;9.27;4.00;;;;;;;-141.50;100.00;63355.56;5029328;28;20053;-78
2024/01/13 08:51:35;;;;;;;6.97;3.80;;;;;;;-141.50;100.00;63355.56;5020747;28;20128;-76
2024/01/13 08:54:04;;;;;;;9.88;4.38;;;;;;;-141.50;100.00;63355.56;5022256;28;20053;-76
2024/01/13 08:56:36;;;;;;;9.55;4.47;;;;;;;-141.50;100.00;63355.56;5047452;28;20045;-77
2024/01/13 08:59:07;;;;;;;11.02;4.80;;;;;;;-141.50;100.00;63355.56;5013954;28;20261;-78
2024/01/13 09:01:34;;;;;;;8.43;4.35;;;;;;;-141.50;100.00;63355.56;5020365;28;20115;-76
2024/01/13 09:04:08;;;;;;;8.45;4.05;;;;;;;-141.50;100.00;63355.56;5005329;28;20052;-77
2024/01/13 09:06:35;;;;;;;9.98;3.92;;;;;;;-141.50;100.00;63355.56;5023218;28;20414;-77
2024/01/13 09:09:06;;;;;;;7.88;3.40;;;;;;;-141.50;100.00;63355.56;5029631;28;20049;-77
2024/01/13 09:11:34;;;;;;;11.88;4.15;;;;;;;-141.50;100.00;63355.56;5038013;28;20091;-76
2024/01/13 09:14:11;;;;;;;7.00;3.80;;;;;;;-141.50;100.00;63355.56;5011233;28;20107;-76
2024/01/13 09:16:41;;;;;;;6.60;3.70;;;;;;;-141.50;100.00;63355.56;5047650;28;20060;-76
2024/01/13 09:19:11;;;;;;;11.57;4.50;;;;;;;-141.50;100.00;63355.56;5017939;28;20468;-76
2024/01/13 09:21:40;;;;;;;7.35;3.92;;;;;;;-141.50;100.00;63355.56;5040271;28;20049;-77
2024/01/13 09:24:14;;;;;;;7.88;3.53;;;;;;;-141.50;100.00;63355.56;5035715;28;20152;-78
2024/01/13 09:26:44;;;;;;;8.40;3.35;;;;;;;-141.50;100.00;63355.56;5011186;28;20141;-79
2024/01/13 09:29:18;;;;;;;8.77;4.10;;;;;;;-141.50;100.00;63355.56;5011982;28;20110;-77
2024/01/13 09:31:51;;;;;;;9.40;4.10;;;;;;;-141.50;100.00;63355.56;5022554;28;20131;-78
2024/01/13 09:34:21;;;;;;;6.57;3.40;;;;;;;-141.50;100.00;63355.56;5028411;28;20064;-78
2024/01/13 09:36:49;;;;;;;7.57;3.35;;;;;;;-141.50;100.00;63355.56;5018066;28;20061;-78
2024/01/13 09:39:20;;;;;;;8.45;3.40;;;;;;;-141.50;100.00;63355.56;5034336;28;20065;-78
2024/01/13 09:41:49;;;;;;;9.63;3.58;;;;;;;-141.50;100.00;63355.56;5010242;28;20095;-78
2024/01/13 09:44:20;;;;;;;9.35;3.47;;;;;;;-141.50;100.00;63355.56;5028934;28;20049;-78
2024/01/13 09:46:48;;;;;;;7.47;3.60;;;;;;;-141.50;100.00;63355.56;5010148;28;20054;-78
2024/01/13 09:49:19;;;;;;;6.45;3.42;;;;;;;-141.50;100.00;63355.56;5028210;28;20047;-77
2024/01/13 09:51:47;;;;;;;8.40;3.88;;;;;;;-141.50;100.00;63355.56;5010390;28;20065;-79
2024/01/13 09:54:30;;;;;;;6.72;3.20;;;;;;;-141.50;100.00;63355.56;5034795;28;20318;-77
2024/01/13 09:56:58;;;;;;;5.93;2.63;;;;;;;-141.50;100.00;63355.56;5035486;28;20041;-77
2024/01/13 09:59:31;;;;;;;10.35;3.55;;;;;;;-141.50;100.00;63355.56;5009441;28;20053;-77
2024/01/13 10:02:02;;;;;;;8.30;3.50;;;;;;;-141.50;100.00;63355.56;5040576;28;20069;-78
2024/01/13 10:04:36;;;;;;;7.55;4.00;;;;;;;-141.50;100.00;63355.56;5010946;28;20056;-77
2024/01/13 10:07:04;;;;;;;7.38;3.13;;;;;;;-141.50;100.00;63355.56;5057669;28;20042;-77
2024/01/13 10:09:34;;;;;;;6.88;3.00;;;;;;;-141.50;100.00;63355.56;5022522;28;20037;-78
2024/01/13 10:12:06;;;;;;;7.68;3.75;;;;;;;-141.50;100.00;63355.56;5047751;28;20830;-78
2024/01/13 10:14:39;;;;;;;8.07;3.65;;;;;;;-141.50;100.00;63355.56;5034068;28;20045;-77
2024/01/13 10:17:11;;;;;;;5.75;3.17;;;;;;;-141.50;100.00;63355.56;5010093;28;20068;-75
2024/01/13 10:19:40;;;;;;;7.68;3.38;;;;;;;-141.50;100.00;63355.56;5003962;28;20064;-76
2024/01/13 10:22:10;;;;;;;7.65;3.63;;;;;;;-141.50;100.00;63355.56;5011610;28;20057;-77
2024/01/13 10:24:37;;;;;;;6.57;3.58;;;;;;;-141.50;100.00;63355.56;5046242;28;20054;-79
2024/01/13 10:27:05;;;;;;;10.13;3.53;;;;;;;-141.50;100.00;63355.56;5003581;28;20054;-76
2024/01/13 10:29:35;;;;;;;9.75;3.90;;;;;;;-141.50;100.00;63355.56;5026102;28;20053;-79
2024/01/13 10:32:03;;;;;;;6.90;3.53;;;;;;;-141.50;100.00;63355.56;5031495;28;20113;-77
2024/01/13 10:34:30;;;;;;;7.28;3.58;;;;;;;-141.50;100.00;63355.56;5024112;28;20049;-78
2024/01/13 10:37:09;;;;;;;7.22;3.47;;;;;;;-141.50;100.00;63355.56;5024648;28;20150;-76
2024/01/13 10:39:37;;;;;;;9.27;3.88;;;;;;;-141.50;100.00;63355.56;5031001;28;20076;-77
2024/01/13 10:42:09;;;;;;;9.57;3.90;;;;;;;-141.50;100.00;63355.56;4999653;28;20049;-75
2024/01/13 10:44:44;;;;;;;10.13;3.75;;;;;;;-141.50;100.00;63355.56;5002020;28;20231;-77
2024/01/13 10:47:15;;;;;;;10.05;3.65;;;;;;;-141.50;100.00;63355.56;5004223;28;20046;-76
2024/01/13 10:49:49;;;;;;;7.57;3.40;;;;;;;-141.50;100.00;63355.56;5018706;28;20062;-77
2024/01/13 10:52:26;;;;;;;9.00;3.72;;;;;;;-141.50;100.00;63355.56;4992770;28;20128;-77
2024/01/13 10:54:56;;;;;;;8.85;3.55;;;;;;;-141.50;100.00;63355.56;5006785;28;20056;-78
2024/01/13 10:57:28;;;;;;;10.40;4.18;;;;;;;-141.50;100.00;63355.56;5013535;28;20053;-78
2024/01/13 10:59:56;;;;;;;9.75;4.15;;;;;;;-141.50;100.00;63355.56;4990209;28;20081;-77
2024/01/13 11:02:23;;;;;;;10.27;4.50;;;;;;;-141.50;100.00;63355.56;5015523;28;20322;-78
2024/01/13 11:04:53;;;;;;;9.27;4.05;;;;;;;-141.50;100.00;63355.56;5012962;28;20490;-77
2024/01/13 11:07:20;;;;;;;8.20;3.97;;;;;;;-141.50;100.00;63355.56;5004349;28;20042;-79
2024/01/13 11:09:52;;;;;;;9.50;4.70;;;;;;;-141.50;100.00;63355.56;5030156;28;20523;-77
2024/01/13 11:12:24;;;;;;;9.90;4.43;;;;;;;-141.50;100.00;63355.56;5005812;28;20100;-77
2024/01/13 11:14:57;;;;;;;9.40;4.57;;;;;;;-141.50;100.00;63355.56;5013255;28;20547;-77
2024/01/13 11:17:28;;;;;;;8.55;4.00;;;;;;;-141.50;100.00;63355.56;5017850;28;20138;-77